AAL1549 KSYR-KORD
Flight info
| Callsign | AAL1549 |
|---|---|
| Flight time | 1h 38m |
| Altitude | 38000 |
| Route | SYR DINES YXU FNT WYNDE2 |
| Aircraft | A20N/M-SDE2E3FGHIRWXY/LB1 |
Departure
| Time | 2026-04-26 19:39 |
|---|---|
| Airport | Syracuse Hancock International Airport (KSYR) |
Arrival
| Time | 2026-04-26 21:17 |
|---|---|
| Airport | Chicago O'Hare International Airport (KORD) |
| Time | Latitude | Longitude | Altitude | Speed | Heading |
|---|---|---|---|---|---|
| 2026-04-26 19:02 | 43.11331 | -76.11054 | 423 ft | 0 kts | 184° |
| 2026-04-26 19:10 | 43.11349 | -76.11052 | 411 ft | 8 kts | 184° |
| 2026-04-26 19:10 | 43.11398 | -76.11030 | 421 ft | 3 kts | 269° |
| 2026-04-26 19:10 | 43.11398 | -76.11029 | 421 ft | 0 kts | 269° |
| 2026-04-26 19:10 | 43.11399 | -76.11026 | 421 ft | 3 kts | 268° |
| 2026-04-26 19:11 | 43.11414 | -76.11001 | 416 ft | 9 kts | 110° |
| 2026-04-26 19:11 | 43.11412 | -76.10987 | 417 ft | 0 kts | 98° |
| 2026-04-26 19:14 | 43.11408 | -76.10958 | 415 ft | 7 kts | 100° |
| 2026-04-26 19:14 | 43.11406 | -76.10943 | 418 ft | 0 kts | 101° |
| 2026-04-26 19:14 | 43.11404 | -76.10923 | 415 ft | 0 kts | 98° |
| 2026-04-26 19:15 | 43.11403 | -76.10916 | 416 ft | 0 kts | 98° |
| 2026-04-26 19:15 | 43.11402 | -76.10901 | 417 ft | 5 kts | 95° |
| 2026-04-26 19:15 | 43.11402 | -76.10797 | 420 ft | 12 kts | 93° |
| 2026-04-26 19:16 | 43.11361 | -76.10737 | 412 ft | 10 kts | 162° |
| 2026-04-26 19:16 | 43.11321 | -76.10736 | 415 ft | 3 kts | 174° |
| 2026-04-26 19:16 | 43.11234 | -76.10731 | 416 ft | 20 kts | 179° |
| 2026-04-26 19:16 | 43.11143 | -76.10725 | 416 ft | 15 kts | 178° |
| 2026-04-26 19:17 | 43.11047 | -76.10720 | 416 ft | 11 kts | 172° |
| 2026-04-26 19:17 | 43.11010 | -76.10629 | 414 ft | 13 kts | 91° |
| 2026-04-26 19:17 | 43.11013 | -76.10520 | 408 ft | 0 kts | 86° |
| 2026-04-26 19:17 | 43.11014 | -76.10501 | 409 ft | 0 kts | 87° |
| 2026-04-26 19:18 | 43.11014 | -76.10490 | 411 ft | 0 kts | 86° |
| 2026-04-26 19:19 | 43.11016 | -76.10446 | 407 ft | 10 kts | 86° |
| 2026-04-26 19:19 | 43.11021 | -76.10291 | 409 ft | 21 kts | 87° |
| 2026-04-26 19:19 | 43.11027 | -76.10126 | 409 ft | 16 kts | 88° |
| 2026-04-26 19:20 | 43.11029 | -76.10030 | 409 ft | 3 kts | 88° |
| 2026-04-26 19:20 | 43.11027 | -76.09993 | 408 ft | 0 kts | 102° |
| 2026-04-26 19:20 | 43.11027 | -76.09992 | 408 ft | 0 kts | 102° |
| 2026-04-26 19:20 | 43.11027 | -76.09990 | 408 ft | 0 kts | 100° |
| 2026-04-26 19:21 | 43.11026 | -76.09987 | 408 ft | 2 kts | 103° |
| 2026-04-26 19:21 | 43.11010 | -76.09944 | 404 ft | 8 kts | 125° |
| 2026-04-26 19:21 | 43.10964 | -76.09874 | 407 ft | 12 kts | 134° |
| 2026-04-26 19:21 | 43.10905 | -76.09792 | 409 ft | 12 kts | 134° |
| 2026-04-26 19:22 | 43.10843 | -76.09704 | 410 ft | 14 kts | 134° |
| 2026-04-26 19:22 | 43.10770 | -76.09601 | 410 ft | 16 kts | 133° |
| 2026-04-26 19:22 | 43.10688 | -76.09570 | 411 ft | 8 kts | 232° |
| 2026-04-26 19:22 | 43.10682 | -76.09633 | 411 ft | 8 kts | 265° |
| 2026-04-26 19:23 | 43.10677 | -76.09749 | 410 ft | 16 kts | 267° |
| 2026-04-26 19:23 | 43.10673 | -76.09942 | 410 ft | 24 kts | 268° |
| 2026-04-26 19:23 | 43.10665 | -76.10181 | 411 ft | 19 kts | 267° |
| 2026-04-26 19:23 | 43.10658 | -76.10391 | 412 ft | 24 kts | 267° |
| 2026-04-26 19:24 | 43.10652 | -76.10585 | 410 ft | 0 kts | 267° |
| 2026-04-26 19:24 | 43.10650 | -76.10626 | 413 ft | 15 kts | 266° |
| 2026-04-26 19:24 | 43.10635 | -76.11071 | 416 ft | 16 kts | 268° |
| 2026-04-26 19:25 | 43.10636 | -76.11244 | 414 ft | 20 kts | 291° |
| 2026-04-26 19:25 | 43.10703 | -76.11298 | 418 ft | 14 kts | 345° |
| 2026-04-26 19:25 | 43.10735 | -76.11451 | 420 ft | 15 kts | 266° |
| 2026-04-26 19:25 | 43.10731 | -76.11606 | 412 ft | 17 kts | 267° |
| 2026-04-26 19:26 | 43.10724 | -76.11774 | 414 ft | 18 kts | 269° |
| 2026-04-26 19:26 | 43.10719 | -76.11951 | 422 ft | 19 kts | 266° |
| 2026-04-26 19:26 | 43.10678 | -76.12131 | 426 ft | 21 kts | 261° |
| 2026-04-26 19:26 | 43.10676 | -76.12157 | 426 ft | 0 kts | 266° |
| 2026-04-26 19:27 | 43.10677 | -76.12139 | 426 ft | 0 kts | 266° |
| 2026-04-26 19:28 | 43.10676 | -76.12154 | 426 ft | 4 kts | 266° |
| 2026-04-26 19:29 | 43.10675 | -76.12183 | 425 ft | 6 kts | 267° |
| 2026-04-26 19:29 | 43.10672 | -76.12275 | 425 ft | 7 kts | 268° |
| 2026-04-26 19:29 | 43.10671 | -76.12307 | 425 ft | 7 kts | 268° |
| 2026-04-26 19:29 | 43.10669 | -76.12388 | 417 ft | 6 kts | 268° |
| 2026-04-26 19:30 | 43.10667 | -76.12472 | 427 ft | 12 kts | 269° |
| 2026-04-26 19:30 | 43.10669 | -76.12509 | 428 ft | 0 kts | 292° |
| 2026-04-26 19:31 | 43.10672 | -76.12517 | 420 ft | 4 kts | 300° |
| 2026-04-26 19:31 | 43.10706 | -76.12538 | 422 ft | 7 kts | 342° |
| 2026-04-26 19:32 | 43.10716 | -76.12542 | 418 ft | 0 kts | 346° |
| 2026-04-26 19:36 | 43.10749 | -76.12548 | 425 ft | 7 kts | 355° |
| 2026-04-26 19:36 | 43.10808 | -76.12520 | 422 ft | 10 kts | 47° |
| 2026-04-26 19:37 | 43.10825 | -76.12459 | 428 ft | 0 kts | 83° |
| 2026-04-26 19:37 | 43.10825 | -76.12458 | 428 ft | 0 kts | 88° |
| 2026-04-26 19:38 | 43.10826 | -76.12412 | 428 ft | 25 kts | 86° |
| 2026-04-26 19:38 | 43.10847 | -76.11812 | 415 ft | 98 kts | 87° |
| 2026-04-26 19:38 | 43.10887 | -76.10618 | 413 ft | 152 kts | 87° |
| 2026-04-26 19:39 | 43.10939 | -76.09134 | 924 ft | 156 kts | 86° |
| 2026-04-26 19:39 | 43.10979 | -76.07618 | 1582 ft | 161 kts | 86° |
| 2026-04-26 19:39 | 43.10998 | -76.06043 | 2114 ft | 174 kts | 87° |
| 2026-04-26 19:39 | 43.10995 | -76.04301 | 2633 ft | 192 kts | 88° |
| 2026-04-26 19:40 | 43.10997 | -76.02404 | 3187 ft | 211 kts | 88° |
| 2026-04-26 19:40 | 43.11001 | -76.00291 | 3711 ft | 234 kts | 89° |
| 2026-04-26 19:40 | 43.11006 | -75.97931 | 3948 ft | 257 kts | 88° |
| 2026-04-26 19:40 | 43.11027 | -75.95473 | 3986 ft | 258 kts | 88° |
| 2026-04-26 19:41 | 43.11040 | -75.93005 | 3994 ft | 261 kts | 89° |
| 2026-04-26 19:41 | 43.11093 | -75.90516 | 3984 ft | 259 kts | 79° |
| 2026-04-26 19:41 | 43.11792 | -75.88283 | 4034 ft | 258 kts | 50° |
| 2026-04-26 19:41 | 43.12670 | -75.87194 | 4279 ft | 259 kts | 31° |
| 2026-04-26 19:42 | 43.14983 | -75.86456 | 5589 ft | 261 kts | 355° |
| 2026-04-26 19:42 | 43.16713 | -75.87259 | 6570 ft | 268 kts | 328° |
| 2026-04-26 19:42 | 43.18006 | -75.89119 | 7477 ft | 275 kts | 301° |
| 2026-04-26 19:42 | 43.18548 | -75.91638 | 8410 ft | 282 kts | 275° |
| 2026-04-26 19:43 | 43.18419 | -75.94340 | 9308 ft | 287 kts | 264° |
| 2026-04-26 19:43 | 43.18071 | -75.97061 | 10208 ft | 292 kts | 262° |
| 2026-04-26 19:43 | 43.17714 | -75.99890 | 10636 ft | 312 kts | 264° |
| 2026-04-26 19:43 | 43.17401 | -76.02901 | 10929 ft | 333 kts | 265° |
| 2026-04-26 19:44 | 43.17118 | -76.06156 | 11169 ft | 355 kts | 266° |
| 2026-04-26 19:44 | 43.16846 | -76.09613 | 11385 ft | 376 kts | 266° |
| 2026-04-26 19:44 | 43.16570 | -76.13267 | 11602 ft | 394 kts | 266° |
| 2026-04-26 19:44 | 43.16315 | -76.17042 | 12116 ft | 400 kts | 270° |
| 2026-04-26 19:45 | 43.16347 | -76.20853 | 12842 ft | 400 kts | 277° |
| 2026-04-26 19:45 | 43.16722 | -76.24623 | 13549 ft | 400 kts | 284° |
| 2026-04-26 19:45 | 43.17352 | -76.28341 | 14233 ft | 402 kts | 286° |
| 2026-04-26 19:45 | 43.17991 | -76.32090 | 14843 ft | 405 kts | 286° |
| 2026-04-26 19:46 | 43.18626 | -76.35862 | 15477 ft | 408 kts | 286° |
| 2026-04-26 19:46 | 43.19262 | -76.39663 | 16116 ft | 410 kts | 286° |
| 2026-04-26 19:46 | 43.19901 | -76.43484 | 16738 ft | 413 kts | 286° |
| 2026-04-26 19:46 | 43.20543 | -76.47339 | 17346 ft | 416 kts | 287° |
| 2026-04-26 19:47 | 43.21191 | -76.51228 | 17947 ft | 420 kts | 287° |
| 2026-04-26 19:47 | 43.21621 | -76.53818 | 18335 ft | 422 kts | 287° |
| 2026-04-26 19:47 | 43.22488 | -76.59046 | 19040 ft | 425 kts | 287° |
| 2026-04-26 19:47 | 43.23143 | -76.63006 | 19564 ft | 428 kts | 287° |
| 2026-04-26 19:48 | 43.23802 | -76.66999 | 20079 ft | 430 kts | 287° |
| 2026-04-26 19:48 | 43.24464 | -76.71021 | 20586 ft | 433 kts | 287° |
| 2026-04-26 19:48 | 43.25127 | -76.75052 | 21098 ft | 435 kts | 287° |
| 2026-04-26 19:48 | 43.25791 | -76.79112 | 21609 ft | 437 kts | 287° |
| 2026-04-26 19:49 | 43.26460 | -76.83201 | 22083 ft | 440 kts | 286° |
| 2026-04-26 19:49 | 43.27130 | -76.87310 | 22549 ft | 442 kts | 286° |
| 2026-04-26 19:49 | 43.27804 | -76.91452 | 23011 ft | 445 kts | 286° |
| 2026-04-26 19:49 | 43.28479 | -76.95614 | 23453 ft | 447 kts | 286° |
| 2026-04-26 19:50 | 43.29154 | -76.99786 | 23874 ft | 449 kts | 286° |
| 2026-04-26 19:50 | 43.29832 | -77.03986 | 24249 ft | 451 kts | 286° |
| 2026-04-26 19:50 | 43.30476 | -77.08210 | 24637 ft | 454 kts | 283° |
| 2026-04-26 19:50 | 43.30858 | -77.12485 | 24986 ft | 458 kts | 278° |
| 2026-04-26 19:51 | 43.30938 | -77.16881 | 25321 ft | 463 kts | 272° |
| 2026-04-26 19:51 | 43.30737 | -77.21308 | 25614 ft | 466 kts | 270° |
| 2026-04-26 19:51 | 43.30533 | -77.25101 | 25838 ft | 467 kts | 270° |
| 2026-04-26 19:54 | 43.30512 | -77.25500 | 25869 ft | 467 kts | 270° |
| 2026-04-26 19:55 | 43.30283 | -77.29946 | 26107 ft | 468 kts | 270° |
| 2026-04-26 19:55 | 43.30056 | -77.34410 | 26288 ft | 469 kts | 270° |
| 2026-04-26 19:55 | 43.29827 | -77.38871 | 26513 ft | 468 kts | 270° |
| 2026-04-26 19:55 | 43.29594 | -77.43326 | 26768 ft | 467 kts | 270° |
| 2026-04-26 19:56 | 43.29359 | -77.47772 | 27023 ft | 466 kts | 270° |
| 2026-04-26 19:56 | 43.29123 | -77.52194 | 27284 ft | 465 kts | 270° |
| 2026-04-26 19:56 | 43.28884 | -77.56621 | 27532 ft | 464 kts | 270° |
| 2026-04-26 19:56 | 43.28645 | -77.61023 | 27768 ft | 463 kts | 269° |
| 2026-04-26 19:57 | 43.28404 | -77.65423 | 28024 ft | 462 kts | 269° |
| 2026-04-26 19:57 | 43.28163 | -77.69812 | 28277 ft | 461 kts | 269° |
| 2026-04-26 19:57 | 43.27920 | -77.74195 | 28491 ft | 460 kts | 269° |
| 2026-04-26 19:57 | 43.27679 | -77.78507 | 28729 ft | 459 kts | 269° |
| 2026-04-26 19:58 | 43.27433 | -77.82875 | 28970 ft | 458 kts | 269° |
| 2026-04-26 19:58 | 43.27186 | -77.87237 | 29203 ft | 458 kts | 269° |
| 2026-04-26 19:58 | 43.26938 | -77.91585 | 29431 ft | 457 kts | 269° |
| 2026-04-26 19:58 | 43.26689 | -77.95925 | 29649 ft | 456 kts | 269° |
| 2026-04-26 19:59 | 43.26438 | -78.00266 | 29862 ft | 456 kts | 269° |
| 2026-04-26 19:59 | 43.26185 | -78.04604 | 30099 ft | 455 kts | 269° |
| 2026-04-26 19:59 | 43.25932 | -78.08923 | 30343 ft | 454 kts | 269° |
| 2026-04-26 19:59 | 43.25678 | -78.13238 | 30574 ft | 453 kts | 269° |
| 2026-04-26 20:00 | 43.25422 | -78.17545 | 30806 ft | 452 kts | 269° |
| 2026-04-26 20:00 | 43.25165 | -78.21849 | 31045 ft | 451 kts | 269° |
| 2026-04-26 20:00 | 43.24907 | -78.26135 | 31286 ft | 450 kts | 269° |
| 2026-04-26 20:00 | 43.24651 | -78.30361 | 31542 ft | 449 kts | 269° |
| 2026-04-26 20:01 | 43.24391 | -78.34634 | 31788 ft | 448 kts | 269° |
| 2026-04-26 20:01 | 43.24131 | -78.38880 | 32040 ft | 447 kts | 269° |
| 2026-04-26 20:01 | 43.23870 | -78.43118 | 32288 ft | 446 kts | 269° |
| 2026-04-26 20:01 | 43.23607 | -78.47360 | 32542 ft | 444 kts | 269° |
| 2026-04-26 20:02 | 43.23344 | -78.51580 | 32786 ft | 443 kts | 269° |
| 2026-04-26 20:02 | 43.23080 | -78.55783 | 33008 ft | 442 kts | 269° |
| 2026-04-26 20:02 | 43.22815 | -78.59981 | 33253 ft | 441 kts | 269° |
| 2026-04-26 20:02 | 43.22729 | -78.61338 | 33334 ft | 440 kts | 269° |
| 2026-04-26 20:03 | 43.22292 | -78.68189 | 33705 ft | 438 kts | 269° |
| 2026-04-26 20:03 | 43.22025 | -78.72341 | 33917 ft | 437 kts | 268° |
| 2026-04-26 20:03 | 43.21758 | -78.76486 | 34108 ft | 437 kts | 268° |
| 2026-04-26 20:03 | 43.21488 | -78.80633 | 34286 ft | 436 kts | 268° |
| 2026-04-26 20:04 | 43.21218 | -78.84781 | 34399 ft | 437 kts | 268° |
| 2026-04-26 20:04 | 43.20945 | -78.88933 | 34504 ft | 438 kts | 268° |
| 2026-04-26 20:04 | 43.20671 | -78.93089 | 34613 ft | 439 kts | 268° |
| 2026-04-26 20:04 | 43.20396 | -78.97256 | 34720 ft | 439 kts | 268° |
| 2026-04-26 20:05 | 43.19931 | -79.04191 | 34925 ft | 440 kts | 268° |
| 2026-04-26 20:05 | 43.19649 | -79.08370 | 35035 ft | 440 kts | 268° |
| 2026-04-26 20:05 | 43.19365 | -79.12554 | 35150 ft | 441 kts | 268° |
| 2026-04-26 20:06 | 43.19080 | -79.16740 | 35261 ft | 441 kts | 268° |
| 2026-04-26 20:06 | 43.18794 | -79.20916 | 35374 ft | 441 kts | 268° |
| 2026-04-26 20:06 | 43.18504 | -79.25113 | 35489 ft | 441 kts | 268° |
| 2026-04-26 20:06 | 43.18215 | -79.29299 | 35605 ft | 442 kts | 268° |
| 2026-04-26 20:07 | 43.17628 | -79.37694 | 35820 ft | 442 kts | 268° |
| 2026-04-26 20:07 | 43.17333 | -79.41892 | 35928 ft | 442 kts | 268° |
| 2026-04-26 20:07 | 43.17036 | -79.46082 | 36039 ft | 442 kts | 268° |
| 2026-04-26 20:08 | 43.16738 | -79.50276 | 36147 ft | 442 kts | 268° |
| 2026-04-26 20:08 | 43.16442 | -79.54416 | 36265 ft | 442 kts | 268° |
| 2026-04-26 20:08 | 43.15839 | -79.62795 | 36446 ft | 442 kts | 268° |
| 2026-04-26 20:09 | 43.15534 | -79.66982 | 36549 ft | 442 kts | 268° |
| 2026-04-26 20:09 | 43.15229 | -79.71172 | 36639 ft | 442 kts | 268° |
| 2026-04-26 20:09 | 43.14921 | -79.75360 | 36741 ft | 442 kts | 268° |
| 2026-04-26 20:09 | 43.14613 | -79.79543 | 36842 ft | 441 kts | 268° |
| 2026-04-26 20:10 | 43.14303 | -79.83731 | 36945 ft | 441 kts | 268° |
| 2026-04-26 20:10 | 43.13995 | -79.87860 | 37047 ft | 441 kts | 268° |
| 2026-04-26 20:10 | 43.13369 | -79.96207 | 37237 ft | 441 kts | 268° |
| 2026-04-26 20:11 | 43.12737 | -80.04547 | 37422 ft | 440 kts | 268° |
| 2026-04-26 20:12 | 43.11779 | -80.17040 | 37683 ft | 440 kts | 268° |
| 2026-04-26 20:12 | 43.11133 | -80.25362 | 37856 ft | 439 kts | 268° |
| 2026-04-26 20:13 | 43.10482 | -80.33669 | 38010 ft | 438 kts | 268° |
| 2026-04-26 20:13 | 43.09831 | -80.41914 | 38135 ft | 438 kts | 268° |
| 2026-04-26 20:14 | 43.09168 | -80.50207 | 38223 ft | 438 kts | 268° |
| 2026-04-26 20:14 | 43.08501 | -80.58482 | 38221 ft | 437 kts | 267° |
| 2026-04-26 20:15 | 43.07829 | -80.66749 | 38218 ft | 437 kts | 267° |
| 2026-04-26 20:15 | 43.07150 | -80.75028 | 38213 ft | 437 kts | 267° |
| 2026-04-26 20:16 | 43.06466 | -80.83290 | 38208 ft | 438 kts | 267° |
| 2026-04-26 20:16 | 43.05776 | -80.91552 | 38206 ft | 437 kts | 267° |
| 2026-04-26 20:17 | 43.05080 | -80.99814 | 38201 ft | 438 kts | 267° |
| 2026-04-26 20:17 | 43.04381 | -81.08085 | 38200 ft | 437 kts | 267° |
| 2026-04-26 20:18 | 43.03685 | -81.16339 | 38200 ft | 437 kts | 269° |
| 2026-04-26 20:18 | 43.03500 | -81.24570 | 38200 ft | 434 kts | 273° |
| 2026-04-26 20:19 | 43.03461 | -81.32822 | 38202 ft | 434 kts | 272° |
| 2026-04-26 20:19 | 43.03343 | -81.41104 | 38209 ft | 435 kts | 272° |
| 2026-04-26 20:20 | 43.03190 | -81.49361 | 38204 ft | 435 kts | 272° |
| 2026-04-26 20:20 | 43.03029 | -81.57616 | 38211 ft | 435 kts | 272° |
| 2026-04-26 20:21 | 43.02862 | -81.65873 | 38211 ft | 434 kts | 272° |
| 2026-04-26 20:21 | 43.02690 | -81.74128 | 38217 ft | 434 kts | 272° |
| 2026-04-26 20:22 | 43.02512 | -81.82385 | 38219 ft | 434 kts | 271° |
| 2026-04-26 20:22 | 43.02329 | -81.90576 | 38215 ft | 434 kts | 271° |
| 2026-04-26 20:23 | 43.02139 | -81.98822 | 38213 ft | 434 kts | 271° |
| 2026-04-26 20:23 | 43.01944 | -82.07068 | 38211 ft | 434 kts | 271° |
| 2026-04-26 20:24 | 43.01742 | -82.15325 | 38210 ft | 434 kts | 271° |
| 2026-04-26 20:24 | 43.01535 | -82.23565 | 38211 ft | 434 kts | 271° |
| 2026-04-26 20:25 | 43.01321 | -82.31806 | 38210 ft | 434 kts | 271° |
| 2026-04-26 20:25 | 43.01102 | -82.40057 | 38213 ft | 434 kts | 271° |
| 2026-04-26 20:26 | 43.00878 | -82.48246 | 38205 ft | 434 kts | 271° |
| 2026-04-26 20:26 | 43.00646 | -82.56491 | 38204 ft | 434 kts | 271° |
| 2026-04-26 20:27 | 43.00410 | -82.64721 | 38215 ft | 434 kts | 271° |
| 2026-04-26 20:27 | 43.00167 | -82.72956 | 38212 ft | 434 kts | 271° |
| 2026-04-26 20:28 | 42.99919 | -82.81192 | 38203 ft | 434 kts | 271° |
| 2026-04-26 20:28 | 42.99664 | -82.89417 | 38201 ft | 433 kts | 271° |
| 2026-04-26 20:29 | 42.99404 | -82.97648 | 38196 ft | 433 kts | 271° |
| 2026-04-26 20:29 | 42.99138 | -83.05861 | 38188 ft | 433 kts | 270° |
| 2026-04-26 20:30 | 42.98868 | -83.14028 | 38193 ft | 432 kts | 270° |
| 2026-04-26 20:30 | 42.98591 | -83.22232 | 38193 ft | 432 kts | 270° |
| 2026-04-26 20:31 | 42.98310 | -83.30379 | 38188 ft | 432 kts | 270° |
| 2026-04-26 20:31 | 42.98021 | -83.38573 | 38186 ft | 431 kts | 270° |
| 2026-04-26 20:32 | 42.97727 | -83.46749 | 38187 ft | 431 kts | 270° |
| 2026-04-26 20:32 | 42.97428 | -83.54926 | 38186 ft | 430 kts | 270° |
| 2026-04-26 20:33 | 42.97123 | -83.63077 | 38182 ft | 430 kts | 270° |
| 2026-04-26 20:33 | 42.96815 | -83.71212 | 38182 ft | 429 kts | 270° |
| 2026-04-26 20:34 | 42.96234 | -83.79283 | 38181 ft | 431 kts | 265° |
| 2026-04-26 20:34 | 42.95453 | -83.87384 | 38182 ft | 430 kts | 266° |
| 2026-04-26 20:35 | 42.94682 | -83.95474 | 38176 ft | 429 kts | 265° |
| 2026-04-26 20:35 | 42.93899 | -84.03559 | 38173 ft | 429 kts | 265° |
| 2026-04-26 20:36 | 42.93115 | -84.11536 | 38170 ft | 412 kts | 265° |
| 2026-04-26 20:36 | 42.92737 | -84.15345 | 38173 ft | 400 kts | 265° |
| 2026-04-26 20:36 | 42.92369 | -84.19062 | 38174 ft | 401 kts | 265° |
| 2026-04-26 20:37 | 42.91619 | -84.26667 | 38150 ft | 406 kts | 265° |
| 2026-04-26 20:37 | 42.91239 | -84.30479 | 37831 ft | 405 kts | 265° |
| 2026-04-26 20:37 | 42.90857 | -84.34298 | 37100 ft | 408 kts | 265° |
| 2026-04-26 20:37 | 42.90471 | -84.38147 | 36472 ft | 410 kts | 265° |
| 2026-04-26 20:38 | 42.90078 | -84.42040 | 36243 ft | 417 kts | 265° |
| 2026-04-26 20:38 | 42.89278 | -84.49928 | 36174 ft | 419 kts | 265° |
| 2026-04-26 20:39 | 42.88473 | -84.57801 | 36174 ft | 419 kts | 265° |
| 2026-04-26 20:39 | 42.87664 | -84.65668 | 36177 ft | 419 kts | 265° |
| 2026-04-26 20:40 | 42.86856 | -84.73474 | 36052 ft | 416 kts | 265° |
| 2026-04-26 20:40 | 42.86451 | -84.77377 | 35572 ft | 415 kts | 265° |
| 2026-04-26 20:40 | 42.86044 | -84.81280 | 34874 ft | 416 kts | 264° |
| 2026-04-26 20:40 | 42.85635 | -84.85196 | 34095 ft | 419 kts | 264° |
| 2026-04-26 20:41 | 42.85222 | -84.89142 | 33159 ft | 422 kts | 264° |
| 2026-04-26 20:41 | 42.84807 | -84.93100 | 32486 ft | 421 kts | 264° |
| 2026-04-26 20:41 | 42.84386 | -84.97080 | 32245 ft | 429 kts | 264° |
| 2026-04-26 20:42 | 42.83523 | -85.05194 | 32155 ft | 432 kts | 263° |
| 2026-04-26 20:42 | 42.82656 | -85.13274 | 31951 ft | 429 kts | 263° |
| 2026-04-26 20:42 | 42.82223 | -85.17293 | 31327 ft | 429 kts | 263° |
| 2026-04-26 20:43 | 42.81788 | -85.21326 | 30602 ft | 430 kts | 263° |
| 2026-04-26 20:43 | 42.81358 | -85.25292 | 30064 ft | 424 kts | 263° |
| 2026-04-26 20:43 | 42.80929 | -85.29230 | 29555 ft | 416 kts | 263° |
| 2026-04-26 20:43 | 42.80505 | -85.33112 | 28906 ft | 412 kts | 263° |
| 2026-04-26 20:44 | 42.80084 | -85.36956 | 28272 ft | 409 kts | 262° |
| 2026-04-26 20:44 | 42.79665 | -85.40772 | 27642 ft | 405 kts | 262° |
| 2026-04-26 20:44 | 42.79249 | -85.44544 | 27031 ft | 402 kts | 262° |
| 2026-04-26 20:44 | 42.78834 | -85.48301 | 26419 ft | 399 kts | 262° |
| 2026-04-26 20:45 | 42.78279 | -85.51986 | 25842 ft | 396 kts | 257° |
| 2026-04-26 20:45 | 42.77620 | -85.55616 | 25258 ft | 394 kts | 257° |
| 2026-04-26 20:45 | 42.76974 | -85.59218 | 24692 ft | 391 kts | 257° |
| 2026-04-26 20:45 | 42.76333 | -85.62802 | 24140 ft | 388 kts | 257° |
| 2026-04-26 20:46 | 42.75696 | -85.66363 | 23561 ft | 386 kts | 257° |
| 2026-04-26 20:46 | 42.75061 | -85.69898 | 22969 ft | 382 kts | 256° |
| 2026-04-26 20:46 | 42.74433 | -85.73392 | 22394 ft | 378 kts | 256° |
| 2026-04-26 20:46 | 42.73807 | -85.76856 | 21835 ft | 374 kts | 256° |
| 2026-04-26 20:47 | 42.73188 | -85.80276 | 21246 ft | 371 kts | 256° |
| 2026-04-26 20:47 | 42.72988 | -85.81381 | 20999 ft | 372 kts | 256° |
| 2026-04-26 20:47 | 42.71929 | -85.87209 | 20252 ft | 391 kts | 256° |
| 2026-04-26 20:47 | 42.71274 | -85.90811 | 20140 ft | 392 kts | 256° |
| 2026-04-26 20:48 | 42.70626 | -85.94365 | 20132 ft | 391 kts | 256° |
| 2026-04-26 20:48 | 42.69963 | -85.97992 | 20123 ft | 391 kts | 256° |
| 2026-04-26 20:48 | 42.69314 | -86.01539 | 20131 ft | 389 kts | 256° |
| 2026-04-26 20:48 | 42.68673 | -86.05035 | 20068 ft | 373 kts | 255° |
| 2026-04-26 20:49 | 42.68049 | -86.08434 | 19496 ft | 370 kts | 255° |
| 2026-04-26 20:49 | 42.67423 | -86.11834 | 18845 ft | 370 kts | 255° |
| 2026-04-26 20:49 | 42.66799 | -86.15219 | 18278 ft | 368 kts | 255° |
| 2026-04-26 20:49 | 42.66180 | -86.18573 | 17640 ft | 365 kts | 255° |
| 2026-04-26 20:50 | 42.65563 | -86.21904 | 17010 ft | 362 kts | 255° |
| 2026-04-26 20:50 | 42.64948 | -86.25222 | 16397 ft | 360 kts | 254° |
| 2026-04-26 20:50 | 42.64338 | -86.28504 | 15790 ft | 357 kts | 254° |
| 2026-04-26 20:50 | 42.63732 | -86.31763 | 15200 ft | 355 kts | 254° |
| 2026-04-26 20:51 | 42.63128 | -86.35003 | 14635 ft | 353 kts | 254° |
| 2026-04-26 20:51 | 42.62527 | -86.38224 | 14085 ft | 351 kts | 253° |
| 2026-04-26 20:51 | 42.61928 | -86.41429 | 13485 ft | 349 kts | 253° |
| 2026-04-26 20:51 | 42.61332 | -86.44612 | 12900 ft | 346 kts | 253° |
| 2026-04-26 20:52 | 42.60739 | -86.47774 | 12311 ft | 344 kts | 253° |
| 2026-04-26 20:52 | 42.60149 | -86.50910 | 11737 ft | 342 kts | 253° |
| 2026-04-26 20:52 | 42.59759 | -86.52983 | 11376 ft | 341 kts | 253° |
| 2026-04-26 20:52 | 42.58988 | -86.57078 | 11069 ft | 339 kts | 253° |
| 2026-04-26 20:53 | 42.58399 | -86.60192 | 11013 ft | 341 kts | 253° |
| 2026-04-26 20:53 | 42.57810 | -86.63304 | 11012 ft | 340 kts | 253° |
| 2026-04-26 20:53 | 42.57221 | -86.66411 | 11009 ft | 341 kts | 253° |
| 2026-04-26 20:53 | 42.56821 | -86.68521 | 11010 ft | 341 kts | 253° |
| 2026-04-26 20:54 | 42.56227 | -86.71632 | 11008 ft | 341 kts | 252° |
| 2026-04-26 20:54 | 42.55476 | -86.74628 | 11006 ft | 339 kts | 247° |
| 2026-04-26 20:54 | 42.54656 | -86.77632 | 11010 ft | 340 kts | 248° |
| 2026-04-26 20:54 | 42.53840 | -86.80643 | 11006 ft | 340 kts | 248° |
| 2026-04-26 20:55 | 42.53027 | -86.83653 | 11004 ft | 339 kts | 248° |
| 2026-04-26 20:55 | 42.52213 | -86.86662 | 11000 ft | 339 kts | 248° |
| 2026-04-26 20:55 | 42.51399 | -86.89665 | 11004 ft | 340 kts | 248° |
| 2026-04-26 20:55 | 42.50582 | -86.92671 | 10998 ft | 340 kts | 247° |
| 2026-04-26 20:56 | 42.49765 | -86.95676 | 10999 ft | 340 kts | 247° |
| 2026-04-26 20:56 | 42.48946 | -86.98685 | 10998 ft | 340 kts | 247° |
| 2026-04-26 20:56 | 42.48125 | -87.01696 | 10996 ft | 340 kts | 247° |
| 2026-04-26 20:56 | 42.47306 | -87.04698 | 10994 ft | 340 kts | 247° |
| 2026-04-26 20:57 | 42.46495 | -87.07663 | 10998 ft | 340 kts | 247° |
| 2026-04-26 20:57 | 42.45661 | -87.10710 | 10994 ft | 340 kts | 247° |
| 2026-04-26 20:57 | 42.44849 | -87.13676 | 10996 ft | 340 kts | 247° |
| 2026-04-26 20:57 | 42.44024 | -87.16685 | 10999 ft | 340 kts | 247° |
| 2026-04-26 20:58 | 42.43199 | -87.19689 | 10996 ft | 341 kts | 247° |
| 2026-04-26 20:58 | 42.42372 | -87.22699 | 11000 ft | 341 kts | 247° |
| 2026-04-26 20:58 | 42.41543 | -87.25712 | 11003 ft | 341 kts | 247° |
| 2026-04-26 20:58 | 42.40715 | -87.28718 | 11001 ft | 341 kts | 247° |
| 2026-04-26 20:59 | 42.39885 | -87.31726 | 11002 ft | 341 kts | 247° |
| 2026-04-26 20:59 | 42.39055 | -87.34733 | 11005 ft | 341 kts | 247° |
| 2026-04-26 20:59 | 42.38224 | -87.37736 | 11004 ft | 341 kts | 247° |
| 2026-04-26 20:59 | 42.37392 | -87.40740 | 11001 ft | 341 kts | 247° |
| 2026-04-26 21:00 | 42.36560 | -87.43744 | 10990 ft | 340 kts | 247° |
| 2026-04-26 21:00 | 42.35742 | -87.46692 | 10769 ft | 338 kts | 247° |
| 2026-04-26 21:00 | 42.34916 | -87.49665 | 10319 ft | 337 kts | 247° |
| 2026-04-26 21:00 | 42.33911 | -87.52505 | 9754 ft | 334 kts | 235° |
| 2026-04-26 21:01 | 42.32446 | -87.54893 | 9232 ft | 327 kts | 221° |
| 2026-04-26 21:01 | 42.30674 | -87.56805 | 9044 ft | 328 kts | 216° |
| 2026-04-26 21:01 | 42.28876 | -87.58696 | 8912 ft | 327 kts | 217° |
| 2026-04-26 21:01 | 42.27192 | -87.60747 | 8570 ft | 326 kts | 230° |
| 2026-04-26 21:02 | 42.26017 | -87.63313 | 8442 ft | 314 kts | 238° |
| 2026-04-26 21:02 | 42.24953 | -87.65817 | 8308 ft | 301 kts | 238° |
| 2026-04-26 21:02 | 42.23958 | -87.68164 | 8186 ft | 288 kts | 237° |
| 2026-04-26 21:02 | 42.22986 | -87.70457 | 8045 ft | 276 kts | 237° |
| 2026-04-26 21:03 | 42.22105 | -87.72530 | 7717 ft | 273 kts | 237° |
| 2026-04-26 21:03 | 42.21160 | -87.74744 | 7334 ft | 272 kts | 237° |
| 2026-04-26 21:03 | 42.20222 | -87.76944 | 7073 ft | 268 kts | 237° |
| 2026-04-26 21:03 | 42.19281 | -87.79145 | 7007 ft | 272 kts | 237° |
| 2026-04-26 21:04 | 42.18333 | -87.81362 | 6994 ft | 271 kts | 237° |
| 2026-04-26 21:04 | 42.17392 | -87.83568 | 6998 ft | 271 kts | 237° |
| 2026-04-26 21:04 | 42.16462 | -87.85744 | 6997 ft | 272 kts | 237° |
| 2026-04-26 21:04 | 42.15520 | -87.87950 | 6998 ft | 271 kts | 237° |
| 2026-04-26 21:05 | 42.14576 | -87.90158 | 6989 ft | 271 kts | 237° |
| 2026-04-26 21:05 | 42.13630 | -87.92363 | 7001 ft | 273 kts | 237° |
| 2026-04-26 21:05 | 42.12683 | -87.94572 | 6992 ft | 272 kts | 237° |
| 2026-04-26 21:05 | 42.11735 | -87.96782 | 7005 ft | 271 kts | 237° |
| 2026-04-26 21:06 | 42.10786 | -87.98987 | 6990 ft | 272 kts | 237° |
| 2026-04-26 21:06 | 42.09864 | -88.01198 | 7000 ft | 272 kts | 242° |
| 2026-04-26 21:06 | 42.09269 | -88.03656 | 6988 ft | 278 kts | 257° |
| 2026-04-26 21:06 | 42.09155 | -88.06251 | 7008 ft | 280 kts | 267° |
| 2026-04-26 21:07 | 42.09165 | -88.08877 | 6999 ft | 280 kts | 266° |
| 2026-04-26 21:07 | 42.09163 | -88.11501 | 6997 ft | 281 kts | 266° |
| 2026-04-26 21:07 | 42.09158 | -88.14146 | 7009 ft | 281 kts | 266° |
| 2026-04-26 21:07 | 42.09150 | -88.16759 | 6859 ft | 277 kts | 266° |
| 2026-04-26 21:08 | 42.09140 | -88.19347 | 6369 ft | 277 kts | 266° |
| 2026-04-26 21:08 | 42.09127 | -88.21938 | 5805 ft | 276 kts | 266° |
| 2026-04-26 21:08 | 42.09113 | -88.24524 | 5366 ft | 275 kts | 266° |
| 2026-04-26 21:08 | 42.09099 | -88.27045 | 5019 ft | 271 kts | 265° |
| 2026-04-26 21:09 | 42.08687 | -88.29393 | 4830 ft | 246 kts | 237° |
| 2026-04-26 21:09 | 42.07587 | -88.30979 | 4711 ft | 224 kts | 206° |
| 2026-04-26 21:09 | 42.06151 | -88.31487 | 4520 ft | 211 kts | 179° |
| 2026-04-26 21:09 | 42.04686 | -88.31430 | 4203 ft | 209 kts | 176° |
| 2026-04-26 21:10 | 42.03255 | -88.31325 | 4012 ft | 201 kts | 169° |
| 2026-04-26 21:10 | 42.02027 | -88.30462 | 3992 ft | 208 kts | 134° |
| 2026-04-26 21:10 | 42.01366 | -88.28726 | 3997 ft | 214 kts | 108° |
| 2026-04-26 21:10 | 42.01028 | -88.26758 | 3995 ft | 218 kts | 106° |
| 2026-04-26 21:11 | 42.00700 | -88.24766 | 3987 ft | 217 kts | 106° |
| 2026-04-26 21:11 | 42.00404 | -88.22774 | 3986 ft | 218 kts | 100° |
| 2026-04-26 21:11 | 42.00298 | -88.20797 | 3980 ft | 207 kts | 95° |
| 2026-04-26 21:11 | 42.00288 | -88.18931 | 3985 ft | 191 kts | 94° |
| 2026-04-26 21:12 | 42.00288 | -88.17244 | 4014 ft | 173 kts | 96° |
| 2026-04-26 21:12 | 42.00282 | -88.15740 | 3890 ft | 156 kts | 95° |
| 2026-04-26 21:12 | 42.00282 | -88.14351 | 3761 ft | 139 kts | 95° |
| 2026-04-26 21:12 | 42.00285 | -88.13104 | 3608 ft | 133 kts | 96° |
| 2026-04-26 21:13 | 42.00276 | -88.11795 | 3437 ft | 141 kts | 95° |
| 2026-04-26 21:13 | 42.00286 | -88.10530 | 3268 ft | 132 kts | 95° |
| 2026-04-26 21:13 | 42.00283 | -88.09253 | 3137 ft | 139 kts | 95° |
| 2026-04-26 21:13 | 42.00283 | -88.07980 | 2926 ft | 131 kts | 94° |
| 2026-04-26 21:14 | 42.00285 | -88.06818 | 2769 ft | 123 kts | 95° |
| 2026-04-26 21:14 | 42.00277 | -88.05635 | 2604 ft | 128 kts | 94° |
| 2026-04-26 21:14 | 42.00284 | -88.04445 | 2445 ft | 128 kts | 92° |
| 2026-04-26 21:14 | 42.00282 | -88.03255 | 2262 ft | 125 kts | 92° |
| 2026-04-26 21:15 | 42.00282 | -88.02072 | 2102 ft | 129 kts | 92° |
| 2026-04-26 21:15 | 42.00283 | -88.00874 | 1914 ft | 126 kts | 90° |
| 2026-04-26 21:15 | 42.00284 | -87.99723 | 1753 ft | 118 kts | 91° |
| 2026-04-26 21:15 | 42.00282 | -87.98633 | 1577 ft | 121 kts | 90° |
| 2026-04-26 21:16 | 42.00282 | -87.97480 | 1414 ft | 126 kts | 90° |
| 2026-04-26 21:16 | 42.00283 | -87.96267 | 1230 ft | 131 kts | 88° |
| 2026-04-26 21:16 | 42.00281 | -87.95102 | 1046 ft | 121 kts | 88° |
| 2026-04-26 21:16 | 42.00282 | -87.93974 | 900 ft | 125 kts | 89° |
| 2026-04-26 21:17 | 42.00276 | -87.92808 | 735 ft | 122 kts | 87° |
| 2026-04-26 21:17 | 42.00285 | -87.91732 | 671 ft | 95 kts | 91° |
| 2026-04-26 21:17 | 42.00285 | -87.91203 | 670 ft | 47 kts | 89° |
| 2026-04-26 21:17 | 42.00285 | -87.90792 | 677 ft | 41 kts | 91° |
| 2026-04-26 21:18 | 42.00283 | -87.90430 | 676 ft | 38 kts | 95° |
| 2026-04-26 21:18 | 42.00225 | -87.90143 | 673 ft | 24 kts | 117° |
| 2026-04-26 21:18 | 42.00155 | -87.90017 | 669 ft | 2 kts | 134° |
| 2026-04-26 21:18 | 42.00146 | -87.90006 | 669 ft | 1 kts | 137° |
| 2026-04-26 21:19 | 42.00117 | -87.89974 | 668 ft | 11 kts | 146° |
| 2026-04-26 21:19 | 42.00004 | -87.89923 | 662 ft | 24 kts | 173° |
| 2026-04-26 21:19 | 41.99804 | -87.89943 | 660 ft | 32 kts | 203° |
| 2026-04-26 21:19 | 41.99599 | -87.90043 | 662 ft | 29 kts | 178° |
| 2026-04-26 21:20 | 41.99529 | -87.90040 | 662 ft | 0 kts | 179° |
| 2026-04-26 21:20 | 41.99521 | -87.90043 | 662 ft | 4 kts | 187° |
| 2026-04-26 21:20 | 41.99457 | -87.90043 | 661 ft | 16 kts | 178° |
| 2026-04-26 21:20 | 41.99301 | -87.90041 | 660 ft | 28 kts | 181° |
| 2026-04-26 21:21 | 41.99093 | -87.90040 | 661 ft | 17 kts | 179° |
| 2026-04-26 21:21 | 41.99001 | -87.90050 | 660 ft | 0 kts | 220° |
| 2026-04-26 21:21 | 41.98997 | -87.90086 | 661 ft | 7 kts | 264° |
| 2026-04-26 21:21 | 41.98996 | -87.90125 | 661 ft | 5 kts | 270° |
| 2026-04-26 21:22 | 41.98996 | -87.90244 | 665 ft | 1 kts | 270° |
| 2026-04-26 21:22 | 41.98996 | -87.90311 | 667 ft | 10 kts | 270° |
| 2026-04-26 21:22 | 41.98940 | -87.90527 | 666 ft | 34 kts | 222° |
| 2026-04-26 21:23 | 41.98577 | -87.90933 | 663 ft | 30 kts | 219° |
| 2026-04-26 21:23 | 41.98475 | -87.91050 | 665 ft | 2 kts | 219° |
| 2026-04-26 21:23 | 41.98465 | -87.91061 | 664 ft | 0 kts | 220° |
| 2026-04-26 21:23 | 41.98465 | -87.91062 | 664 ft | 1 kts | 220° |
| 2026-04-26 21:24 | 41.98437 | -87.91092 | 666 ft | 10 kts | 220° |
| 2026-04-26 21:24 | 41.98371 | -87.91166 | 666 ft | 14 kts | 219° |
| 2026-04-26 21:24 | 41.98352 | -87.91187 | 664 ft | 0 kts | 220° |
| 2026-04-26 21:24 | 41.98351 | -87.91188 | 664 ft | 1 kts | 220° |
| 2026-04-26 21:25 | 41.98322 | -87.91208 | 666 ft | 9 kts | 186° |
| 2026-04-26 21:25 | 41.98291 | -87.91115 | 664 ft | 15 kts | 94° |
| 2026-04-26 21:25 | 41.98294 | -87.90960 | 662 ft | 17 kts | 89° |
| 2026-04-26 21:25 | 41.98227 | -87.90866 | 663 ft | 16 kts | 168° |
| 2026-04-26 21:26 | 41.98159 | -87.90857 | 662 ft | 0 kts | 181° |
| 2026-04-26 21:26 | 41.98154 | -87.90877 | 662 ft | 4 kts | 260° |
| 2026-04-26 21:26 | 41.98143 | -87.90901 | 663 ft | 1 kts | 231° |
| 2026-04-26 21:26 | 41.98129 | -87.90923 | 663 ft | 5 kts | 230° |
| 2026-04-26 21:27 | 41.98128 | -87.90925 | 663 ft | 0 kts | 229° |